sensor_id;sensor_type;location;lat;lon;timestamp;pressure;altitude;pressure_sealevel;temperature;humidity
56414;BME280;42318;48.452;19.526;2023-03-19T00:04:38;98691.31;;;19.18;46.71
56414;BME280;42318;48.452;19.526;2023-03-19T00:12:09;98681.84;;;19.37;46.08
56414;BME280;42318;48.452;19.526;2023-03-19T00:19:41;98679.72;;;19.39;46.07
56414;BME280;42318;48.452;19.526;2023-03-19T00:27:12;98675.69;;;19.41;46.01
56414;BME280;42318;48.452;19.526;2023-03-19T00:34:43;98660.78;;;19.27;46.22
56414;BME280;42318;48.452;19.526;2023-03-19T00:42:13;98658.59;;;18.96;46.84
56414;BME280;42318;48.452;19.526;2023-03-19T00:49:44;98661.47;;;18.89;47.13
56414;BME280;42318;48.452;19.526;2023-03-19T00:57:15;98670.59;;;18.83;47.01
56414;BME280;42318;48.452;19.526;2023-03-19T01:04:49;98659.88;;;18.76;47.32
56414;BME280;42318;48.452;19.526;2023-03-19T01:12:20;98669.81;;;18.71;47.28
56414;BME280;42318;48.452;19.526;2023-03-19T01:19:51;98671.00;;;18.75;47.36
56414;BME280;42318;48.452;19.526;2023-03-19T01:27:22;98675.63;;;18.91;47.02
56414;BME280;42318;48.452;19.526;2023-03-19T01:34:53;98671.88;;;19.09;46.31
56414;BME280;42318;48.452;19.526;2023-03-19T01:42:24;98679.22;;;19.25;45.74
56414;BME280;42318;48.452;19.526;2023-03-19T01:49:55;98673.06;;;19.30;45.70
56414;BME280;42318;48.452;19.526;2023-03-19T01:57:28;98662.00;;;19.36;45.67
56414;BME280;42318;48.452;19.526;2023-03-19T02:05:11;98662.00;;;19.36;45.25
56414;BME280;42318;48.452;19.526;2023-03-19T02:12:44;98660.19;;;19.42;45.56
56414;BME280;42318;48.452;19.526;2023-03-19T02:20:34;98660.69;;;19.39;45.67
56414;BME280;42318;48.452;19.526;2023-03-19T02:28:07;98672.13;;;19.41;45.55
56414;BME280;42318;48.452;19.526;2023-03-19T02:35:41;98667.19;;;19.38;45.52
56414;BME280;42318;48.452;19.526;2023-03-19T02:43:12;98657.97;;;19.39;45.75
56414;BME280;42318;48.452;19.526;2023-03-19T02:50:43;98674.59;;;19.42;45.63
56414;BME280;42318;48.452;19.526;2023-03-19T02:58:14;98663.91;;;19.36;45.63
56414;BME280;42318;48.452;19.526;2023-03-19T03:05:45;98676.75;;;19.40;45.50
56414;BME280;42318;48.452;19.526;2023-03-19T03:13:16;98665.06;;;19.40;45.41
56414;BME280;42318;48.452;19.526;2023-03-19T03:20:47;98666.88;;;19.34;45.32
56414;BME280;42318;48.452;19.526;2023-03-19T03:28:18;98683.25;;;19.39;45.59
56414;BME280;42318;48.452;19.526;2023-03-19T03:35:49;98671.81;;;19.37;45.58
56414;BME280;42318;48.452;19.526;2023-03-19T03:43:20;98676.50;;;19.42;45.24
56414;BME280;42318;48.452;19.526;2023-03-19T03:50:51;98669.66;;;19.39;45.28
56414;BME280;42318;48.452;19.526;2023-03-19T03:58:22;98678.06;;;19.38;45.40
56414;BME280;42318;48.452;19.526;2023-03-19T04:05:53;98662.25;;;19.35;45.50
56414;BME280;42318;48.452;19.526;2023-03-19T04:13:24;98685.06;;;19.34;45.49
56414;BME280;42318;48.452;19.526;2023-03-19T04:20:55;98664.13;;;19.01;46.18
56414;BME280;42318;48.452;19.526;2023-03-19T04:28:28;98680.47;;;19.18;45.99
56414;BME280;42318;48.452;19.526;2023-03-19T04:35:59;98665.97;;;19.29;45.46
56414;BME280;42318;48.452;19.526;2023-03-19T04:43:30;98663.59;;;19.32;45.53
56414;BME280;42318;48.452;19.526;2023-03-19T04:51:01;98659.53;;;19.35;45.48
56414;BME280;42318;48.452;19.526;2023-03-19T04:58:33;98659.47;;;19.30;45.34
56414;BME280;42318;48.452;19.526;2023-03-19T05:06:04;98658.47;;;19.36;45.46
56414;BME280;42318;48.452;19.526;2023-03-19T05:13:35;98667.44;;;19.36;45.55
56414;BME280;42318;48.452;19.526;2023-03-19T05:21:09;98670.50;;;19.40;45.52
56414;BME280;42318;48.452;19.526;2023-03-19T05:28:40;98671.97;;;19.48;45.41
56414;BME280;42318;48.452;19.526;2023-03-19T05:36:13;98670.06;;;19.48;45.09
56414;BME280;42318;48.452;19.526;2023-03-19T05:43:44;98679.31;;;19.47;45.41
56414;BME280;42318;48.452;19.526;2023-03-19T05:51:15;98684.72;;;19.47;45.31
56414;BME280;42318;48.452;19.526;2023-03-19T05:58:46;98684.72;;;19.47;45.14
56414;BME280;42318;48.452;19.526;2023-03-19T06:06:16;98695.59;;;19.47;45.09
56414;BME280;42318;48.452;19.526;2023-03-19T06:13:47;98692.88;;;19.47;45.24
56414;BME280;42318;48.452;19.526;2023-03-19T06:21:18;98715.19;;;19.49;45.23
56414;BME280;42318;48.452;19.526;2023-03-19T06:28:49;98715.91;;;19.56;45.22
56414;BME280;42318;48.452;19.526;2023-03-19T06:36:20;98700.94;;;19.54;45.05
56414;BME280;42318;48.452;19.526;2023-03-19T06:43:51;98702.22;;;19.51;45.26
56414;BME280;42318;48.452;19.526;2023-03-19T06:51:22;98696.56;;;19.53;45.37
56414;BME280;42318;48.452;19.526;2023-03-19T06:58:52;98697.81;;;19.50;45.65
56414;BME280;42318;48.452;19.526;2023-03-19T07:06:24;98712.38;;;19.56;45.32
56414;BME280;42318;48.452;19.526;2023-03-19T07:13:54;98716.50;;;19.58;45.15
56414;BME280;42318;48.452;19.526;2023-03-19T07:21:25;98716.75;;;19.57;45.31
56414;BME280;42318;48.452;19.526;2023-03-19T07:28:56;98713.59;;;19.65;45.09
56414;BME280;42318;48.452;19.526;2023-03-19T07:36:27;98709.75;;;19.61;45.34
56414;BME280;42318;48.452;19.526;2023-03-19T07:43:57;98700.59;;;19.67;45.17
56414;BME280;42318;48.452;19.526;2023-03-19T07:51:28;98697.06;;;19.66;45.28
56414;BME280;42318;48.452;19.526;2023-03-19T07:58:59;98695.91;;;19.62;45.29
56414;BME280;42318;48.452;19.526;2023-03-19T08:06:30;98693.19;;;19.62;45.36
56414;BME280;42318;48.452;19.526;2023-03-19T08:14:01;98683.78;;;19.70;45.41
56414;BME280;42318;48.452;19.526;2023-03-19T08:21:32;98688.41;;;19.69;45.07
56414;BME280;42318;48.452;19.526;2023-03-19T08:29:03;98685.69;;;19.69;45.36
56414;BME280;42318;48.452;19.526;2023-03-19T08:36:33;98660.78;;;19.77;45.69
56414;BME280;42318;48.452;19.526;2023-03-19T08:44:04;98662.19;;;19.80;45.82
56414;BME280;42318;48.452;19.526;2023-03-19T08:51:35;98668.75;;;19.84;45.85
56414;BME280;42318;48.452;19.526;2023-03-19T08:59:06;98675.03;;;19.85;46.06
56414;BME280;42318;48.452;19.526;2023-03-19T09:06:37;98676.22;;;19.94;45.76
56414;BME280;42318;48.452;19.526;2023-03-19T09:14:08;98672.88;;;19.87;45.87
56414;BME280;42318;48.452;19.526;2023-03-19T09:21:41;98661.53;;;19.73;46.33
56414;BME280;42318;48.452;19.526;2023-03-19T09:29:12;98660.72;;;19.72;46.56
56414;BME280;42318;48.452;19.526;2023-03-19T09:36:43;98658.63;;;19.80;46.42
56414;BME280;42318;48.452;19.526;2023-03-19T09:44:27;98662.22;;;20.02;46.00
56414;BME280;42318;48.452;19.526;2023-03-19T09:59:48;98644.28;;;20.01;46.01
56414;BME280;42318;48.452;19.526;2023-03-19T10:15:08;98647.31;;;20.04;47.33
56414;BME280;42318;48.452;19.526;2023-03-19T10:22:44;98639.41;;;19.86;48.44
56414;BME280;42318;48.452;19.526;2023-03-19T10:30:17;98632.34;;;19.85;48.47
56414;BME280;42318;48.452;19.526;2023-03-19T10:37:49;98631.78;;;19.83;48.66
56414;BME280;42318;48.452;19.526;2023-03-19T10:45:28;98617.28;;;19.77;49.18
56414;BME280;42318;48.452;19.526;2023-03-19T11:00:37;98588.06;;;19.68;49.22
56414;BME280;42318;48.452;19.526;2023-03-19T11:08:13;98589.13;;;19.67;49.18
56414;BME280;42318;48.452;19.526;2023-03-19T11:15:48;98581.25;;;19.65;49.14
56414;BME280;42318;48.452;19.526;2023-03-19T11:23:19;98545.06;;;19.65;49.04
56414;BME280;42318;48.452;19.526;2023-03-19T11:38:59;98542.09;;;19.66;49.51
56414;BME280;42318;48.452;19.526;2023-03-19T11:54:22;98520.94;;;19.68;49.62
56414;BME280;42318;48.452;19.526;2023-03-19T12:17:15;98513.03;;;19.67;49.20
56414;BME280;42318;48.452;19.526;2023-03-19T12:40:04;98470.91;;;19.69;49.13
56414;BME280;42318;48.452;19.526;2023-03-19T12:47:37;98446.47;;;19.69;48.78
56414;BME280;42318;48.452;19.526;2023-03-19T13:03:12;98425.78;;;19.68;48.96
56414;BME280;42318;48.452;19.526;2023-03-19T13:10:48;98411.38;;;19.68;48.72
56414;BME280;42318;48.452;19.526;2023-03-19T13:18:33;98424.47;;;19.71;48.84
56414;BME280;42318;48.452;19.526;2023-03-19T13:26:07;98422.09;;;19.80;48.76
56414;BME280;42318;48.452;19.526;2023-03-19T13:33:39;98412.88;;;19.81;48.74
56414;BME280;42318;48.452;19.526;2023-03-19T13:41:46;98394.03;;;19.74;48.72
56414;BME280;42318;48.452;19.526;2023-03-19T13:49:21;98393.47;;;19.72;48.73
56414;BME280;42318;48.452;19.526;2023-03-19T13:57:01;98388.56;;;19.69;48.60
56414;BME280;42318;48.452;19.526;2023-03-19T14:04:35;98388.81;;;19.67;48.75
56414;BME280;42318;48.452;19.526;2023-03-19T14:19:52;98375.16;;;19.62;48.62
56414;BME280;42318;48.452;19.526;2023-03-19T14:27:26;98371.63;;;19.62;48.76
56414;BME280;42318;48.452;19.526;2023-03-19T14:34:59;98361.84;;;19.61;48.63
56414;BME280;42318;48.452;19.526;2023-03-19T14:42:37;98357.47;;;19.60;48.64
56414;BME280;42318;48.452;19.526;2023-03-19T14:57:51;98345.75;;;19.54;48.46
56414;BME280;42318;48.452;19.526;2023-03-19T15:05:27;98346.81;;;19.53;48.48
56414;BME280;42318;48.452;19.526;2023-03-19T15:20:42;98347.03;;;19.52;48.29
56414;BME280;42318;48.452;19.526;2023-03-19T15:28:14;98348.34;;;19.49;48.36
56414;BME280;42318;48.452;19.526;2023-03-19T15:35:45;98342.34;;;19.47;48.40
56414;BME280;42318;48.452;19.526;2023-03-19T15:43:16;98344.50;;;19.45;48.48
56414;BME280;42318;48.452;19.526;2023-03-19T15:50:48;98363.78;;;19.43;48.35
56414;BME280;42318;48.452;19.526;2023-03-19T15:58:22;98379.25;;;19.43;48.42
56414;BME280;42318;48.452;19.526;2023-03-19T16:06:00;98375.16;;;19.40;48.30
56414;BME280;42318;48.452;19.526;2023-03-19T16:13:38;98379.19;;;19.38;48.43
56414;BME280;42318;48.452;19.526;2023-03-19T16:21:17;98373.19;;;19.36;48.39
56414;BME280;42318;48.452;19.526;2023-03-19T16:36:35;98372.88;;;19.32;48.29
56414;BME280;42318;48.452;19.526;2023-03-19T16:44:14;98390.50;;;19.30;48.43
56414;BME280;42318;48.452;19.526;2023-03-19T16:51:45;98394.06;;;19.30;48.43
56414;BME280;42318;48.452;19.526;2023-03-19T16:59:18;98406.25;;;19.28;48.33
56414;BME280;42318;48.452;19.526;2023-03-19T17:06:50;98412.75;;;19.27;48.59
56414;BME280;42318;48.452;19.526;2023-03-19T17:14:20;98409.47;;;19.25;48.38
56414;BME280;42318;48.452;19.526;2023-03-19T17:21:54;98426.03;;;19.23;48.46
56414;BME280;42318;48.452;19.526;2023-03-19T17:29:26;98427.91;;;19.23;48.35
56414;BME280;42318;48.452;19.526;2023-03-19T17:36:57;98420.28;;;19.20;48.51
56414;BME280;42318;48.452;19.526;2023-03-19T17:44:29;98428.41;;;19.20;48.51
56414;BME280;42318;48.452;19.526;2023-03-19T17:52:01;98427.84;;;19.18;48.57
56414;BME280;42318;48.452;19.526;2023-03-19T17:59:31;98428.09;;;19.16;48.45
56414;BME280;42318;48.452;19.526;2023-03-19T18:07:02;98430.25;;;19.14;48.15
56414;BME280;42318;48.452;19.526;2023-03-19T18:14:33;98436.75;;;19.13;48.22
56414;BME280;42318;48.452;19.526;2023-03-19T18:22:16;98446.78;;;19.12;48.20
56414;BME280;42318;48.452;19.526;2023-03-19T18:29:47;98445.41;;;19.10;48.26
56414;BME280;42318;48.452;19.526;2023-03-19T18:37:18;98442.94;;;19.08;48.11
56414;BME280;42318;48.452;19.526;2023-03-19T18:44:49;98437.97;;;19.05;48.37
56414;BME280;42318;48.452;19.526;2023-03-19T18:52:20;98444.59;;;19.09;48.03
56414;BME280;42318;48.452;19.526;2023-03-19T18:59:53;98443.75;;;19.09;48.27
56414;BME280;42318;48.452;19.526;2023-03-19T19:07:24;98448.38;;;19.08;48.03
56414;BME280;42318;48.452;19.526;2023-03-19T19:14:55;98454.38;;;19.10;47.92
56414;BME280;42318;48.452;19.526;2023-03-19T19:22:28;98454.94;;;19.12;47.69
56414;BME280;42318;48.452;19.526;2023-03-19T19:29:59;98451.66;;;19.10;47.90
56414;BME280;42318;48.452;19.526;2023-03-19T19:37:30;98453.81;;;19.08;48.01
56414;BME280;42318;48.452;19.526;2023-03-19T19:45:01;98445.06;;;19.06;48.01
56414;BME280;42318;48.452;19.526;2023-03-19T19:52:32;98458.88;;;19.05;47.64
56414;BME280;42318;48.452;19.526;2023-03-19T20:00:05;98454.84;;;19.07;47.55
56414;BME280;42318;48.452;19.526;2023-03-19T20:07:36;98450.00;;;19.09;47.75
56414;BME280;42318;48.452;19.526;2023-03-19T20:15:14;98447.31;;;19.09;47.82
56414;BME280;42318;48.452;19.526;2023-03-19T20:22:45;98438.91;;;19.11;47.55
56414;BME280;42318;48.452;19.526;2023-03-19T20:30:20;98436.13;;;19.28;47.26
56414;BME280;42318;48.452;19.526;2023-03-19T20:37:52;98448.63;;;19.51;46.55
56414;BME280;42318;48.452;19.526;2023-03-19T20:45:23;98436.59;;;19.63;46.32
56414;BME280;42318;48.452;19.526;2023-03-19T20:52:55;98430.16;;;19.69;46.19
56414;BME280;42318;48.452;19.526;2023-03-19T21:00:31;98438.41;;;19.80;45.85
56414;BME280;42318;48.452;19.526;2023-03-19T21:08:04;98437.59;;;19.79;45.89
56414;BME280;42318;48.452;19.526;2023-03-19T21:15:35;98437.63;;;19.84;46.04
56414;BME280;42318;48.452;19.526;2023-03-19T21:23:07;98440.66;;;19.88;45.90
56414;BME280;42318;48.452;19.526;2023-03-19T21:30:40;98427.34;;;19.86;45.76
56414;BME280;42318;48.452;19.526;2023-03-19T21:38:12;98426.50;;;19.86;45.97
56414;BME280;42318;48.452;19.526;2023-03-19T21:45:42;98424.03;;;19.84;45.82
56414;BME280;42318;48.452;19.526;2023-03-19T21:53:13;98416.66;;;19.80;45.82
56414;BME280;42318;48.452;19.526;2023-03-19T22:00:44;98408.13;;;19.49;46.85
56414;BME280;42318;48.452;19.526;2023-03-19T22:08:16;98416.03;;;19.29;47.42
56414;BME280;42318;48.452;19.526;2023-03-19T22:15:48;98402.41;;;19.24;47.26
56414;BME280;42318;48.452;19.526;2023-03-19T22:23:20;98397.47;;;19.21;47.40
56414;BME280;42318;48.452;19.526;2023-03-19T22:30:51;98385.22;;;19.18;47.50
56414;BME280;42318;48.452;19.526;2023-03-19T22:38:22;98390.41;;;19.20;47.28
56414;BME280;42318;48.452;19.526;2023-03-19T22:45:54;98390.41;;;19.20;47.52
56414;BME280;42318;48.452;19.526;2023-03-19T22:53:27;98399.03;;;19.17;47.29
56414;BME280;42318;48.452;19.526;2023-03-19T23:00:57;98394.38;;;19.12;47.46
56414;BME280;42318;48.452;19.526;2023-03-19T23:08:29;98391.09;;;19.10;47.60
56414;BME280;42318;48.452;19.526;2023-03-19T23:16:00;98391.34;;;19.08;47.50
56414;BME280;42318;48.452;19.526;2023-03-19T23:23:31;98383.66;;;19.05;47.45
56414;BME280;42318;48.452;19.526;2023-03-19T23:31:03;98390.84;;;19.11;47.36
56414;BME280;42318;48.452;19.526;2023-03-19T23:38:35;98373.69;;;19.33;46.94
56414;BME280;42318;48.452;19.526;2023-03-19T23:46:06;98378.22;;;19.49;46.52
56414;BME280;42318;48.452;19.526;2023-03-19T23:53:37;98377.88;;;19.62;46.08
